sensor_id;sensor_type;location;lat;lon;timestamp;P1;durP1;ratioP1;P2;durP2;ratioP2
15295;SDS011;7749;49.964;7.890;2023-11-21T00:02:27;7.07;;;2.90;;
15295;SDS011;7749;49.964;7.890;2023-11-21T00:04:55;5.47;;;2.90;;
15295;SDS011;7749;49.964;7.890;2023-11-21T00:07:22;5.83;;;3.00;;
15295;SDS011;7749;49.964;7.890;2023-11-21T00:09:50;4.53;;;2.77;;
15295;SDS011;7749;49.964;7.890;2023-11-21T00:12:20;6.10;;;2.93;;
15295;SDS011;7749;49.964;7.890;2023-11-21T00:14:48;5.90;;;3.30;;
15295;SDS011;7749;49.964;7.890;2023-11-21T00:17:15;4.57;;;3.47;;
15295;SDS011;7749;49.964;7.890;2023-11-21T00:19:43;6.33;;;3.80;;
15295;SDS011;7749;49.964;7.890;2023-11-21T00:22:10;6.20;;;3.50;;
15295;SDS011;7749;49.964;7.890;2023-11-21T00:24:38;5.10;;;4.07;;
15295;SDS011;7749;49.964;7.890;2023-11-21T00:27:05;6.77;;;3.70;;
15295;SDS011;7749;49.964;7.890;2023-11-21T00:29:32;4.70;;;3.53;;
15295;SDS011;7749;49.964;7.890;2023-11-21T00:32:00;5.20;;;3.80;;
15295;SDS011;7749;49.964;7.890;2023-11-21T00:34:27;6.57;;;3.67;;
15295;SDS011;7749;49.964;7.890;2023-11-21T00:36:55;5.67;;;3.90;;
15295;SDS011;7749;49.964;7.890;2023-11-21T00:39:22;4.50;;;3.90;;
15295;SDS011;7749;49.964;7.890;2023-11-21T00:41:50;8.10;;;3.87;;
15295;SDS011;7749;49.964;7.890;2023-11-21T00:44:18;5.73;;;3.97;;
15295;SDS011;7749;49.964;7.890;2023-11-21T00:46:46;5.10;;;3.40;;
15295;SDS011;7749;49.964;7.890;2023-11-21T00:49:13;4.67;;;3.67;;
15295;SDS011;7749;49.964;7.890;2023-11-21T00:51:41;5.53;;;3.77;;
15295;SDS011;7749;49.964;7.890;2023-11-21T00:54:08;5.13;;;4.03;;
15295;SDS011;7749;49.964;7.890;2023-11-21T00:56:35;6.40;;;3.70;;
15295;SDS011;7749;49.964;7.890;2023-11-21T00:59:03;5.97;;;4.27;;
15295;SDS011;7749;49.964;7.890;2023-11-21T01:01:31;7.77;;;4.30;;
15295;SDS011;7749;49.964;7.890;2023-11-21T01:03:59;8.73;;;5.10;;
15295;SDS011;7749;49.964;7.890;2023-11-21T01:06:27;7.47;;;5.27;;
15295;SDS011;7749;49.964;7.890;2023-11-21T01:08:54;7.57;;;5.40;;
15295;SDS011;7749;49.964;7.890;2023-11-21T01:11:22;6.60;;;5.07;;
15295;SDS011;7749;49.964;7.890;2023-11-21T01:13:49;6.00;;;5.00;;
15295;SDS011;7749;49.964;7.890;2023-11-21T01:16:17;6.70;;;5.10;;
15295;SDS011;7749;49.964;7.890;2023-11-21T01:18:44;7.10;;;5.33;;
15295;SDS011;7749;49.964;7.890;2023-11-21T01:21:12;5.53;;;4.87;;
15295;SDS011;7749;49.964;7.890;2023-11-21T01:23:39;9.50;;;5.77;;
15295;SDS011;7749;49.964;7.890;2023-11-21T01:26:07;6.57;;;5.80;;
15295;SDS011;7749;49.964;7.890;2023-11-21T01:28:35;6.13;;;5.53;;
15295;SDS011;7749;49.964;7.890;2023-11-21T01:31:02;8.00;;;5.90;;
15295;SDS011;7749;49.964;7.890;2023-11-21T01:33:30;6.83;;;5.90;;
15295;SDS011;7749;49.964;7.890;2023-11-21T01:35:58;7.30;;;6.00;;
15295;SDS011;7749;49.964;7.890;2023-11-21T01:38:26;7.53;;;6.30;;
15295;SDS011;7749;49.964;7.890;2023-11-21T01:40:54;8.60;;;7.20;;
15295;SDS011;7749;49.964;7.890;2023-11-21T01:43:21;13.47;;;8.70;;
15295;SDS011;7749;49.964;7.890;2023-11-21T01:45:49;10.03;;;8.37;;
15295;SDS011;7749;49.964;7.890;2023-11-21T01:48:19;8.47;;;6.67;;
15295;SDS011;7749;49.964;7.890;2023-11-21T01:50:46;8.60;;;6.43;;
15295;SDS011;7749;49.964;7.890;2023-11-21T01:53:15;9.10;;;6.73;;
15295;SDS011;7749;49.964;7.890;2023-11-21T01:55:43;9.30;;;6.53;;
15295;SDS011;7749;49.964;7.890;2023-11-21T01:58:13;7.20;;;6.50;;
15295;SDS011;7749;49.964;7.890;2023-11-21T02:00:41;9.60;;;6.60;;
15295;SDS011;7749;49.964;7.890;2023-11-21T02:03:08;11.07;;;6.80;;
15295;SDS011;7749;49.964;7.890;2023-11-21T02:05:37;9.70;;;6.57;;
15295;SDS011;7749;49.964;7.890;2023-11-21T02:08:04;8.57;;;6.30;;
15295;SDS011;7749;49.964;7.890;2023-11-21T02:10:32;9.27;;;6.20;;
15295;SDS011;7749;49.964;7.890;2023-11-21T02:12:59;8.43;;;6.10;;
15295;SDS011;7749;49.964;7.890;2023-11-21T02:15:29;9.57;;;6.70;;
15295;SDS011;7749;49.964;7.890;2023-11-21T02:17:57;8.40;;;6.60;;
15295;SDS011;7749;49.964;7.890;2023-11-21T02:20:26;9.73;;;7.43;;
15295;SDS011;7749;49.964;7.890;2023-11-21T02:22:56;9.27;;;7.13;;
15295;SDS011;7749;49.964;7.890;2023-11-21T02:25:29;6.10;;;4.63;;
15295;SDS011;7749;49.964;7.890;2023-11-21T02:28:01;5.13;;;4.63;;
15295;SDS011;7749;49.964;7.890;2023-11-21T02:30:30;4.50;;;3.47;;
15295;SDS011;7749;49.964;7.890;2023-11-21T02:33:01;3.67;;;2.40;;
15295;SDS011;7749;49.964;7.890;2023-11-21T02:35:29;3.53;;;2.00;;
15295;SDS011;7749;49.964;7.890;2023-11-21T02:37:58;2.30;;;1.60;;
15295;SDS011;7749;49.964;7.890;2023-11-21T02:40:26;1.40;;;1.30;;
15295;SDS011;7749;49.964;7.890;2023-11-21T02:42:54;1.07;;;0.97;;
15295;SDS011;7749;49.964;7.890;2023-11-21T02:45:22;0.50;;;0.50;;
15295;SDS011;7749;49.964;7.890;2023-11-21T02:47:51;1.00;;;0.90;;
15295;SDS011;7749;49.964;7.890;2023-11-21T02:50:20;1.80;;;1.20;;
15295;SDS011;7749;49.964;7.890;2023-11-21T02:52:49;1.53;;;1.00;;
15295;SDS011;7749;49.964;7.890;2023-11-21T02:55:18;2.63;;;1.20;;
15295;SDS011;7749;49.964;7.890;2023-11-21T02:57:45;1.90;;;1.40;;
15295;SDS011;7749;49.964;7.890;2023-11-21T03:00:13;1.20;;;1.10;;
15295;SDS011;7749;49.964;7.890;2023-11-21T03:02:42;1.10;;;1.10;;
15295;SDS011;7749;49.964;7.890;2023-11-21T03:05:10;2.00;;;1.57;;
15295;SDS011;7749;49.964;7.890;2023-11-21T03:07:38;1.23;;;1.10;;
15295;SDS011;7749;49.964;7.890;2023-11-21T03:10:07;1.63;;;1.50;;
15295;SDS011;7749;49.964;7.890;2023-11-21T03:12:39;1.60;;;1.50;;
15295;SDS011;7749;49.964;7.890;2023-11-21T03:15:07;1.50;;;1.40;;
15295;SDS011;7749;49.964;7.890;2023-11-21T03:17:35;1.50;;;1.40;;
15295;SDS011;7749;49.964;7.890;2023-11-21T03:20:03;1.43;;;1.33;;
15295;SDS011;7749;49.964;7.890;2023-11-21T03:22:31;1.40;;;1.30;;
15295;SDS011;7749;49.964;7.890;2023-11-21T03:25:00;1.47;;;1.37;;
15295;SDS011;7749;49.964;7.890;2023-11-21T03:27:27;1.73;;;1.40;;
15295;SDS011;7749;49.964;7.890;2023-11-21T03:29:55;1.93;;;1.20;;
15295;SDS011;7749;49.964;7.890;2023-11-21T03:32:22;3.30;;;1.67;;
15295;SDS011;7749;49.964;7.890;2023-11-21T03:34:54;1.60;;;1.50;;
15295;SDS011;7749;49.964;7.890;2023-11-21T03:37:26;1.83;;;1.40;;
15295;SDS011;7749;49.964;7.890;2023-11-21T03:39:55;1.97;;;1.60;;
15295;SDS011;7749;49.964;7.890;2023-11-21T03:42:24;1.60;;;1.50;;
15295;SDS011;7749;49.964;7.890;2023-11-21T03:44:53;1.60;;;1.50;;
15295;SDS011;7749;49.964;7.890;2023-11-21T03:47:21;1.67;;;1.37;;
15295;SDS011;7749;49.964;7.890;2023-11-21T03:49:49;2.23;;;1.40;;
15295;SDS011;7749;49.964;7.890;2023-11-21T03:52:16;1.50;;;1.37;;
15295;SDS011;7749;49.964;7.890;2023-11-21T03:54:44;4.20;;;2.30;;
15295;SDS011;7749;49.964;7.890;2023-11-21T03:57:12;2.37;;;1.90;;
15295;SDS011;7749;49.964;7.890;2023-11-21T03:59:40;2.40;;;2.00;;
15295;SDS011;7749;49.964;7.890;2023-11-21T04:02:08;2.63;;;1.53;;
15295;SDS011;7749;49.964;7.890;2023-11-21T04:04:36;2.40;;;1.70;;
15295;SDS011;7749;49.964;7.890;2023-11-21T04:07:04;2.00;;;1.80;;
15295;SDS011;7749;49.964;7.890;2023-11-21T04:09:32;3.23;;;1.70;;
15295;SDS011;7749;49.964;7.890;2023-11-21T04:11:59;1.77;;;1.67;;
15295;SDS011;7749;49.964;7.890;2023-11-21T04:14:27;2.60;;;2.40;;
15295;SDS011;7749;49.964;7.890;2023-11-21T04:16:54;1.60;;;1.50;;
15295;SDS011;7749;49.964;7.890;2023-11-21T04:19:22;2.10;;;1.70;;
15295;SDS011;7749;49.964;7.890;2023-11-21T04:21:50;1.53;;;1.43;;
15295;SDS011;7749;49.964;7.890;2023-11-21T04:24:17;3.80;;;1.60;;
15295;SDS011;7749;49.964;7.890;2023-11-21T04:26:44;1.97;;;1.77;;
15295;SDS011;7749;49.964;7.890;2023-11-21T04:29:12;2.00;;;1.67;;
15295;SDS011;7749;49.964;7.890;2023-11-21T04:31:39;2.43;;;1.97;;
15295;SDS011;7749;49.964;7.890;2023-11-21T04:34:07;3.50;;;2.03;;
15295;SDS011;7749;49.964;7.890;2023-11-21T04:36:35;2.20;;;2.00;;
15295;SDS011;7749;49.964;7.890;2023-11-21T04:39:02;2.27;;;2.00;;
15295;SDS011;7749;49.964;7.890;2023-11-21T04:41:30;2.30;;;1.73;;
15295;SDS011;7749;49.964;7.890;2023-11-21T04:43:58;2.77;;;1.93;;
15295;SDS011;7749;49.964;7.890;2023-11-21T04:46:28;2.77;;;2.10;;
15295;SDS011;7749;49.964;7.890;2023-11-21T04:48:55;2.63;;;2.27;;
15295;SDS011;7749;49.964;7.890;2023-11-21T04:51:23;2.90;;;2.20;;
15295;SDS011;7749;49.964;7.890;2023-11-21T04:53:51;2.60;;;2.40;;
15295;SDS011;7749;49.964;7.890;2023-11-21T04:56:18;2.90;;;2.30;;
15295;SDS011;7749;49.964;7.890;2023-11-21T04:58:45;3.73;;;3.10;;
15295;SDS011;7749;49.964;7.890;2023-11-21T05:01:13;5.30;;;3.23;;
15295;SDS011;7749;49.964;7.890;2023-11-21T05:03:41;3.70;;;2.70;;
15295;SDS011;7749;49.964;7.890;2023-11-21T05:06:11;3.63;;;2.70;;
15295;SDS011;7749;49.964;7.890;2023-11-21T05:08:38;4.23;;;2.90;;
15295;SDS011;7749;49.964;7.890;2023-11-21T05:11:06;4.63;;;3.70;;
15295;SDS011;7749;49.964;7.890;2023-11-21T05:13:37;5.70;;;3.53;;
15295;SDS011;7749;49.964;7.890;2023-11-21T05:16:06;4.27;;;3.50;;
15295;SDS011;7749;49.964;7.890;2023-11-21T05:18:34;4.50;;;4.10;;
15295;SDS011;7749;49.964;7.890;2023-11-21T05:21:01;4.57;;;3.97;;
15295;SDS011;7749;49.964;7.890;2023-11-21T05:23:29;4.63;;;4.23;;
15295;SDS011;7749;49.964;7.890;2023-11-21T05:25:56;5.90;;;3.90;;
15295;SDS011;7749;49.964;7.890;2023-11-21T05:28:24;4.30;;;3.87;;
15295;SDS011;7749;49.964;7.890;2023-11-21T05:30:52;7.00;;;4.83;;
15295;SDS011;7749;49.964;7.890;2023-11-21T05:33:40;4.57;;;4.00;;
15295;SDS011;7749;49.964;7.890;2023-11-21T05:36:08;4.97;;;4.47;;
15295;SDS011;7749;49.964;7.890;2023-11-21T05:38:37;5.73;;;4.40;;
15295;SDS011;7749;49.964;7.890;2023-11-21T05:41:04;6.23;;;4.00;;
15295;SDS011;7749;49.964;7.890;2023-11-21T05:43:33;5.13;;;4.63;;
15295;SDS011;7749;49.964;7.890;2023-11-21T05:46:02;4.30;;;3.83;;
15295;SDS011;7749;49.964;7.890;2023-11-21T05:48:30;4.37;;;3.80;;
15295;SDS011;7749;49.964;7.890;2023-11-21T05:50:58;4.27;;;3.40;;
15295;SDS011;7749;49.964;7.890;2023-11-21T05:53:26;3.87;;;3.50;;
15295;SDS011;7749;49.964;7.890;2023-11-21T05:55:53;3.00;;;2.70;;
15295;SDS011;7749;49.964;7.890;2023-11-21T05:58:20;3.20;;;2.60;;
15295;SDS011;7749;49.964;7.890;2023-11-21T06:00:48;2.73;;;2.40;;
15295;SDS011;7749;49.964;7.890;2023-11-21T06:03:15;4.60;;;2.47;;
15295;SDS011;7749;49.964;7.890;2023-11-21T06:05:44;3.10;;;2.33;;
15295;SDS011;7749;49.964;7.890;2023-11-21T06:08:11;3.07;;;2.20;;
15295;SDS011;7749;49.964;7.890;2023-11-21T06:10:39;3.63;;;2.97;;
15295;SDS011;7749;49.964;7.890;2023-11-21T06:13:06;3.30;;;2.50;;
15295;SDS011;7749;49.964;7.890;2023-11-21T06:15:34;3.77;;;2.77;;
15295;SDS011;7749;49.964;7.890;2023-11-21T06:18:01;3.43;;;2.30;;
15295;SDS011;7749;49.964;7.890;2023-11-21T06:20:29;2.93;;;2.40;;
15295;SDS011;7749;49.964;7.890;2023-11-21T06:22:57;3.77;;;2.60;;
15295;SDS011;7749;49.964;7.890;2023-11-21T06:25:24;5.77;;;3.63;;
15295;SDS011;7749;49.964;7.890;2023-11-21T06:27:52;4.57;;;2.83;;
15295;SDS011;7749;49.964;7.890;2023-11-21T06:30:20;3.97;;;2.43;;
15295;SDS011;7749;49.964;7.890;2023-11-21T06:32:48;3.80;;;2.43;;
15295;SDS011;7749;49.964;7.890;2023-11-21T06:35:18;5.23;;;3.23;;
15295;SDS011;7749;49.964;7.890;2023-11-21T06:37:46;4.97;;;3.43;;
15295;SDS011;7749;49.964;7.890;2023-11-21T06:40:18;4.77;;;3.60;;
15295;SDS011;7749;49.964;7.890;2023-11-21T06:42:47;5.80;;;4.00;;
15295;SDS011;7749;49.964;7.890;2023-11-21T06:45:15;4.97;;;3.57;;
15295;SDS011;7749;49.964;7.890;2023-11-21T06:47:43;6.23;;;4.20;;
15295;SDS011;7749;49.964;7.890;2023-11-21T06:50:12;4.37;;;3.93;;
15295;SDS011;7749;49.964;7.890;2023-11-21T06:52:40;4.23;;;3.73;;
15295;SDS011;7749;49.964;7.890;2023-11-21T06:55:07;5.17;;;4.63;;
15295;SDS011;7749;49.964;7.890;2023-11-21T06:57:36;5.30;;;4.17;;
15295;SDS011;7749;49.964;7.890;2023-11-21T07:00:04;5.53;;;3.73;;
15295;SDS011;7749;49.964;7.890;2023-11-21T07:02:33;5.60;;;4.07;;
15295;SDS011;7749;49.964;7.890;2023-11-21T07:05:01;6.80;;;4.53;;
15295;SDS011;7749;49.964;7.890;2023-11-21T07:07:28;4.83;;;3.30;;
15295;SDS011;7749;49.964;7.890;2023-11-21T07:09:56;4.20;;;3.80;;
15295;SDS011;7749;49.964;7.890;2023-11-21T07:12:23;4.70;;;4.13;;
15295;SDS011;7749;49.964;7.890;2023-11-21T07:14:52;5.73;;;3.57;;
15295;SDS011;7749;49.964;7.890;2023-11-21T07:17:21;5.23;;;3.70;;
15295;SDS011;7749;49.964;7.890;2023-11-21T07:19:50;5.27;;;4.03;;
15295;SDS011;7749;49.964;7.890;2023-11-21T07:22:18;4.63;;;3.83;;
15295;SDS011;7749;49.964;7.890;2023-11-21T07:24:51;4.03;;;3.30;;
15295;SDS011;7749;49.964;7.890;2023-11-21T07:27:18;3.83;;;3.10;;
15295;SDS011;7749;49.964;7.890;2023-11-21T07:29:46;4.53;;;2.93;;
15295;SDS011;7749;49.964;7.890;2023-11-21T07:32:15;4.17;;;3.07;;
15295;SDS011;7749;49.964;7.890;2023-11-21T07:34:43;5.53;;;3.10;;
15295;SDS011;7749;49.964;7.890;2023-11-21T07:37:10;3.57;;;2.83;;
15295;SDS011;7749;49.964;7.890;2023-11-21T07:39:38;3.03;;;2.70;;
15295;SDS011;7749;49.964;7.890;2023-11-21T07:42:09;4.60;;;2.70;;
15295;SDS011;7749;49.964;7.890;2023-11-21T07:44:38;3.23;;;2.93;;
15295;SDS011;7749;49.964;7.890;2023-11-21T07:47:05;3.97;;;2.30;;
15295;SDS011;7749;49.964;7.890;2023-11-21T07:49:33;3.53;;;2.47;;
15295;SDS011;7749;49.964;7.890;2023-11-21T07:52:00;2.23;;;2.03;;
15295;SDS011;7749;49.964;7.890;2023-11-21T07:54:28;12.37;;;5.40;;
15295;SDS011;7749;49.964;7.890;2023-11-21T07:56:55;3.30;;;2.27;;
15295;SDS011;7749;49.964;7.890;2023-11-21T07:59:23;3.83;;;2.77;;
15295;SDS011;7749;49.964;7.890;2023-11-21T08:01:50;3.83;;;2.17;;
15295;SDS011;7749;49.964;7.890;2023-11-21T08:04:18;4.23;;;2.30;;
15295;SDS011;7749;49.964;7.890;2023-11-21T08:06:46;5.03;;;2.40;;
15295;SDS011;7749;49.964;7.890;2023-11-21T08:09:14;3.63;;;2.10;;
15295;SDS011;7749;49.964;7.890;2023-11-21T08:11:42;4.47;;;2.53;;
15295;SDS011;7749;49.964;7.890;2023-11-21T08:14:10;3.30;;;2.20;;
15295;SDS011;7749;49.964;7.890;2023-11-21T08:16:37;4.83;;;3.00;;
15295;SDS011;7749;49.964;7.890;2023-11-21T08:19:05;5.10;;;2.40;;
15295;SDS011;7749;49.964;7.890;2023-11-21T08:21:33;3.50;;;2.70;;
15295;SDS011;7749;49.964;7.890;2023-11-21T08:24:00;2.90;;;2.50;;
15295;SDS011;7749;49.964;7.890;2023-11-21T08:26:29;4.53;;;2.67;;
15295;SDS011;7749;49.964;7.890;2023-11-21T08:28:56;4.07;;;2.63;;
15295;SDS011;7749;49.964;7.890;2023-11-21T08:31:27;4.37;;;2.90;;
15295;SDS011;7749;49.964;7.890;2023-11-21T08:33:55;3.60;;;2.53;;
15295;SDS011;7749;49.964;7.890;2023-11-21T08:36:23;3.03;;;2.73;;
15295;SDS011;7749;49.964;7.890;2023-11-21T08:38:51;3.63;;;2.73;;
15295;SDS011;7749;49.964;7.890;2023-11-21T08:41:19;9.50;;;4.43;;
15295;SDS011;7749;49.964;7.890;2023-11-21T08:43:50;4.90;;;2.90;;
15295;SDS011;7749;49.964;7.890;2023-11-21T08:46:18;4.13;;;2.97;;
15295;SDS011;7749;49.964;7.890;2023-11-21T08:48:47;3.63;;;2.60;;
15295;SDS011;7749;49.964;7.890;2023-11-21T08:51:15;3.33;;;2.40;;
15295;SDS011;7749;49.964;7.890;2023-11-21T08:53:43;3.90;;;2.17;;
15295;SDS011;7749;49.964;7.890;2023-11-21T08:56:14;5.17;;;2.50;;
15295;SDS011;7749;49.964;7.890;2023-11-21T08:58:42;4.27;;;2.70;;
15295;SDS011;7749;49.964;7.890;2023-11-21T09:01:09;2.87;;;2.57;;
15295;SDS011;7749;49.964;7.890;2023-11-21T09:03:37;4.63;;;2.90;;
15295;SDS011;7749;49.964;7.890;2023-11-21T09:06:04;5.17;;;2.57;;
15295;SDS011;7749;49.964;7.890;2023-11-21T09:08:32;2.93;;;2.37;;
15295;SDS011;7749;49.964;7.890;2023-11-21T09:11:00;3.80;;;3.00;;
15295;SDS011;7749;49.964;7.890;2023-11-21T09:13:27;3.73;;;2.47;;
15295;SDS011;7749;49.964;7.890;2023-11-21T09:15:56;3.13;;;2.83;;
15295;SDS011;7749;49.964;7.890;2023-11-21T09:18:24;2.97;;;2.70;;
15295;SDS011;7749;49.964;7.890;2023-11-21T09:20:51;4.43;;;3.40;;
15295;SDS011;7749;49.964;7.890;2023-11-21T09:23:19;4.20;;;3.00;;
15295;SDS011;7749;49.964;7.890;2023-11-21T09:25:47;4.10;;;3.20;;
15295;SDS011;7749;49.964;7.890;2023-11-21T09:28:16;3.13;;;2.83;;
15295;SDS011;7749;49.964;7.890;2023-11-21T09:30:44;3.47;;;2.97;;
15295;SDS011;7749;49.964;7.890;2023-11-21T09:33:12;3.57;;;3.27;;
15295;SDS011;7749;49.964;7.890;2023-11-21T09:35:39;5.27;;;3.33;;
15295;SDS011;7749;49.964;7.890;2023-11-21T09:38:07;3.30;;;2.87;;
15295;SDS011;7749;49.964;7.890;2023-11-21T09:40:38;4.00;;;2.87;;
15295;SDS011;7749;49.964;7.890;2023-11-21T09:43:07;6.10;;;3.70;;
15295;SDS011;7749;49.964;7.890;2023-11-21T09:45:45;4.47;;;3.10;;
15295;SDS011;7749;49.964;7.890;2023-11-21T09:48:17;5.50;;;3.60;;
15295;SDS011;7749;49.964;7.890;2023-11-21T09:50:47;3.97;;;3.13;;
15295;SDS011;7749;49.964;7.890;2023-11-21T09:55:51;6.47;;;3.90;;
15295;SDS011;7749;49.964;7.890;2023-11-21T09:58:20;7.03;;;3.40;;
15295;SDS011;7749;49.964;7.890;2023-11-21T10:00:53;6.07;;;3.90;;
15295;SDS011;7749;49.964;7.890;2023-11-21T10:03:23;7.93;;;3.50;;
15295;SDS011;7749;49.964;7.890;2023-11-21T10:05:51;4.73;;;3.77;;
15295;SDS011;7749;49.964;7.890;2023-11-21T10:08:23;4.07;;;3.30;;
15295;SDS011;7749;49.964;7.890;2023-11-21T10:11:12;6.23;;;3.63;;
15295;SDS011;7749;49.964;7.890;2023-11-21T10:13:42;8.37;;;4.00;;
15295;SDS011;7749;49.964;7.890;2023-11-21T10:16:14;5.83;;;3.17;;
15295;SDS011;7749;49.964;7.890;2023-11-21T10:18:45;4.73;;;3.07;;
15295;SDS011;7749;49.964;7.890;2023-11-21T10:21:13;4.93;;;3.60;;
15295;SDS011;7749;49.964;7.890;2023-11-21T10:23:41;5.33;;;3.83;;
15295;SDS011;7749;49.964;7.890;2023-11-21T10:26:11;7.40;;;3.70;;
15295;SDS011;7749;49.964;7.890;2023-11-21T10:28:57;8.20;;;4.27;;
15295;SDS011;7749;49.964;7.890;2023-11-21T10:31:32;6.60;;;3.40;;
15295;SDS011;7749;49.964;7.890;2023-11-21T10:34:19;6.13;;;3.37;;
15295;SDS011;7749;49.964;7.890;2023-11-21T10:36:47;6.53;;;3.83;;
15295;SDS011;7749;49.964;7.890;2023-11-21T10:39:21;4.90;;;4.07;;
15295;SDS011;7749;49.964;7.890;2023-11-21T10:41:50;9.33;;;4.97;;
15295;SDS011;7749;49.964;7.890;2023-11-21T10:44:18;5.97;;;3.90;;
15295;SDS011;7749;49.964;7.890;2023-11-21T10:46:51;9.07;;;4.67;;
15295;SDS011;7749;49.964;7.890;2023-11-21T10:49:28;6.87;;;4.97;;
15295;SDS011;7749;49.964;7.890;2023-11-21T10:51:55;7.03;;;5.47;;
15295;SDS011;7749;49.964;7.890;2023-11-21T10:54:24;8.57;;;5.03;;
15295;SDS011;7749;49.964;7.890;2023-11-21T10:56:59;7.93;;;5.00;;
15295;SDS011;7749;49.964;7.890;2023-11-21T10:59:29;8.30;;;4.97;;
15295;SDS011;7749;49.964;7.890;2023-11-21T11:01:58;7.33;;;4.07;;
15295;SDS011;7749;49.964;7.890;2023-11-21T11:04:29;6.97;;;4.10;;
15295;SDS011;7749;49.964;7.890;2023-11-21T11:07:02;7.07;;;4.60;;
15295;SDS011;7749;49.964;7.890;2023-11-21T11:09:32;5.97;;;4.27;;
15295;SDS011;7749;49.964;7.890;2023-11-21T11:12:03;5.63;;;3.90;;
15295;SDS011;7749;49.964;7.890;2023-11-21T11:14:32;4.80;;;4.10;;
15295;SDS011;7749;49.964;7.890;2023-11-21T11:16:59;7.10;;;4.50;;
15295;SDS011;7749;49.964;7.890;2023-11-21T11:19:29;5.53;;;4.20;;
15295;SDS011;7749;49.964;7.890;2023-11-21T11:22:09;7.33;;;4.70;;
15295;SDS011;7749;49.964;7.890;2023-11-21T11:27:48;5.17;;;4.30;;
15295;SDS011;7749;49.964;7.890;2023-11-21T11:30:32;5.20;;;3.42;;
15295;SDS011;7749;49.964;7.890;2023-11-21T11:33:35;5.50;;;3.83;;
15295;SDS011;7749;49.964;7.890;2023-11-21T11:38:56;6.05;;;4.20;;
15295;SDS011;7749;49.964;7.890;2023-11-21T11:41:26;6.20;;;4.00;;
15295;SDS011;7749;49.964;7.890;2023-11-21T11:43:58;6.28;;;4.20;;
15295;SDS011;7749;49.964;7.890;2023-11-21T11:46:42;6.00;;;3.80;;
15295;SDS011;7749;49.964;7.890;2023-11-21T11:49:24;5.10;;;4.18;;
15295;SDS011;7749;49.964;7.890;2023-11-21T11:55:00;6.68;;;4.95;;
15295;SDS011;7749;49.964;7.890;2023-11-21T11:57:31;6.47;;;4.72;;
15295;SDS011;7749;49.964;7.890;2023-11-21T12:02:49;5.97;;;4.70;;
15295;SDS011;7749;49.964;7.890;2023-11-21T12:05:21;7.63;;;4.93;;
15295;SDS011;7749;49.964;7.890;2023-11-21T12:07:51;5.45;;;4.95;;
15295;SDS011;7749;49.964;7.890;2023-11-21T12:10:25;6.28;;;4.82;;
15295;SDS011;7749;49.964;7.890;2023-11-21T12:15:25;6.35;;;4.63;;
15295;SDS011;7749;49.964;7.890;2023-11-21T12:17:53;6.05;;;4.93;;
15295;SDS011;7749;49.964;7.890;2023-11-21T12:20:22;7.82;;;5.68;;
15295;SDS011;7749;49.964;7.890;2023-11-21T12:22:51;7.70;;;5.35;;
15295;SDS011;7749;49.964;7.890;2023-11-21T12:25:24;7.25;;;5.53;;
15295;SDS011;7749;49.964;7.890;2023-11-21T12:27:56;6.60;;;5.90;;
15295;SDS011;7749;49.964;7.890;2023-11-21T12:30:25;9.27;;;6.30;;
15295;SDS011;7749;49.964;7.890;2023-11-21T12:32:55;9.17;;;7.13;;
15295;SDS011;7749;49.964;7.890;2023-11-21T12:35:27;10.47;;;7.40;;
15295;SDS011;7749;49.964;7.890;2023-11-21T12:37:55;10.03;;;7.73;;
15295;SDS011;7749;49.964;7.890;2023-11-21T12:40:26;14.23;;;9.50;;
15295;SDS011;7749;49.964;7.890;2023-11-21T12:42:55;10.60;;;7.97;;
15295;SDS011;7749;49.964;7.890;2023-11-21T12:45:27;12.50;;;7.93;;
15295;SDS011;7749;49.964;7.890;2023-11-21T12:50:30;12.30;;;8.83;;
15295;SDS011;7749;49.964;7.890;2023-11-21T12:55:37;12.27;;;8.60;;
15295;SDS011;7749;49.964;7.890;2023-11-21T12:58:06;14.53;;;8.97;;
15295;SDS011;7749;49.964;7.890;2023-11-21T13:00:47;12.60;;;7.80;;
15295;SDS011;7749;49.964;7.890;2023-11-21T13:03:16;10.20;;;8.03;;
15295;SDS011;7749;49.964;7.890;2023-11-21T13:05:47;15.47;;;8.60;;
15295;SDS011;7749;49.964;7.890;2023-11-21T13:08:20;12.17;;;7.93;;
15295;SDS011;7749;49.964;7.890;2023-11-21T13:10:51;12.70;;;7.60;;
15295;SDS011;7749;49.964;7.890;2023-11-21T13:13:21;14.73;;;9.60;;
15295;SDS011;7749;49.964;7.890;2023-11-21T13:15:51;12.77;;;8.37;;
15295;SDS011;7749;49.964;7.890;2023-11-21T13:18:28;13.60;;;9.70;;
15295;SDS011;7749;49.964;7.890;2023-11-21T13:20:59;14.93;;;9.63;;
15295;SDS011;7749;49.964;7.890;2023-11-21T13:23:29;12.03;;;8.30;;
15295;SDS011;7749;49.964;7.890;2023-11-21T13:26:01;11.47;;;8.30;;
15295;SDS011;7749;49.964;7.890;2023-11-21T13:28:33;10.90;;;8.67;;
15295;SDS011;7749;49.964;7.890;2023-11-21T13:31:03;9.93;;;7.23;;
15295;SDS011;7749;49.964;7.890;2023-11-21T13:33:48;10.43;;;7.83;;
15295;SDS011;7749;49.964;7.890;2023-11-21T13:36:24;9.97;;;7.07;;
15295;SDS011;7749;49.964;7.890;2023-11-21T13:38:53;7.57;;;6.17;;
15295;SDS011;7749;49.964;7.890;2023-11-21T13:41:21;11.57;;;6.60;;
15295;SDS011;7749;49.964;7.890;2023-11-21T13:43:55;10.00;;;6.63;;
15295;SDS011;7749;49.964;7.890;2023-11-21T13:46:33;8.37;;;6.33;;
15295;SDS011;7749;49.964;7.890;2023-11-21T13:49:04;11.23;;;7.37;;
15295;SDS011;7749;49.964;7.890;2023-11-21T13:51:37;10.60;;;7.23;;
15295;SDS011;7749;49.964;7.890;2023-11-21T13:54:08;9.77;;;6.80;;
15295;SDS011;7749;49.964;7.890;2023-11-21T13:56:36;9.83;;;6.47;;
15295;SDS011;7749;49.964;7.890;2023-11-21T13:59:05;11.67;;;6.90;;
15295;SDS011;7749;49.964;7.890;2023-11-21T14:01:40;13.37;;;8.03;;
15295;SDS011;7749;49.964;7.890;2023-11-21T14:04:20;10.83;;;7.53;;
15295;SDS011;7749;49.964;7.890;2023-11-21T14:07:01;11.30;;;8.97;;
15295;SDS011;7749;49.964;7.890;2023-11-21T14:09:47;13.53;;;7.73;;
15295;SDS011;7749;49.964;7.890;2023-11-21T14:12:16;12.83;;;7.53;;
15295;SDS011;7749;49.964;7.890;2023-11-21T14:14:44;9.10;;;7.27;;
15295;SDS011;7749;49.964;7.890;2023-11-21T14:17:12;11.67;;;8.77;;
15295;SDS011;7749;49.964;7.890;2023-11-21T14:19:39;12.50;;;8.30;;
15295;SDS011;7749;49.964;7.890;2023-11-21T14:22:10;14.70;;;8.70;;
15295;SDS011;7749;49.964;7.890;2023-11-21T14:24:37;12.87;;;8.60;;
15295;SDS011;7749;49.964;7.890;2023-11-21T14:27:10;14.40;;;9.60;;
15295;SDS011;7749;49.964;7.890;2023-11-21T14:29:41;12.33;;;9.10;;
15295;SDS011;7749;49.964;7.890;2023-11-21T14:32:11;17.47;;;11.30;;
15295;SDS011;7749;49.964;7.890;2023-11-21T14:34:40;14.00;;;8.93;;
15295;SDS011;7749;49.964;7.890;2023-11-21T14:37:10;16.60;;;10.63;;
15295;SDS011;7749;49.964;7.890;2023-11-21T14:39:40;13.63;;;10.23;;
15295;SDS011;7749;49.964;7.890;2023-11-21T14:42:12;14.13;;;10.57;;
15295;SDS011;7749;49.964;7.890;2023-11-21T14:44:42;14.83;;;11.17;;
15295;SDS011;7749;49.964;7.890;2023-11-21T14:47:10;14.20;;;10.87;;
15295;SDS011;7749;49.964;7.890;2023-11-21T14:49:44;15.60;;;11.40;;
15295;SDS011;7749;49.964;7.890;2023-11-21T14:52:20;15.23;;;10.57;;
15295;SDS011;7749;49.964;7.890;2023-11-21T14:55:02;13.70;;;10.37;;
15295;SDS011;7749;49.964;7.890;2023-11-21T14:57:49;14.80;;;10.57;;
15295;SDS011;7749;49.964;7.890;2023-11-21T15:00:18;15.17;;;10.53;;
15295;SDS011;7749;49.964;7.890;2023-11-21T15:03:09;14.57;;;10.80;;
15295;SDS011;7749;49.964;7.890;2023-11-21T15:05:37;14.40;;;10.87;;
15295;SDS011;7749;49.964;7.890;2023-11-21T15:08:07;14.07;;;10.73;;
15295;SDS011;7749;49.964;7.890;2023-11-21T15:10:54;19.53;;;12.57;;
15295;SDS011;7749;49.964;7.890;2023-11-21T15:13:22;15.60;;;10.20;;
15295;SDS011;7749;49.964;7.890;2023-11-21T15:15:54;16.03;;;9.83;;
15295;SDS011;7749;49.964;7.890;2023-11-21T15:18:21;15.13;;;9.93;;
15295;SDS011;7749;49.964;7.890;2023-11-21T15:20:49;14.90;;;10.17;;
15295;SDS011;7749;49.964;7.890;2023-11-21T15:23:17;12.10;;;9.33;;
15295;SDS011;7749;49.964;7.890;2023-11-21T15:25:46;13.90;;;9.13;;
15295;SDS011;7749;49.964;7.890;2023-11-21T15:28:13;15.43;;;12.20;;
15295;SDS011;7749;49.964;7.890;2023-11-21T15:30:41;14.40;;;10.40;;
15295;SDS011;7749;49.964;7.890;2023-11-21T15:33:09;12.90;;;9.40;;
15295;SDS011;7749;49.964;7.890;2023-11-21T15:35:36;15.47;;;10.17;;